sensor_id;sensor_type;location;lat;lon;timestamp;temperature;humidity
32139;DHT22;18644;48.700;9.210;2022-09-21T00:00:16;9.70;61.80
32139;DHT22;18644;48.700;9.210;2022-09-21T00:02:43;9.70;61.70
32139;DHT22;18644;48.700;9.210;2022-09-21T00:05:10;9.70;61.70
32139;DHT22;18644;48.700;9.210;2022-09-21T00:07:37;9.70;61.70
32139;DHT22;18644;48.700;9.210;2022-09-21T00:10:04;9.60;62.40
32139;DHT22;18644;48.700;9.210;2022-09-21T00:12:32;9.60;61.70
32139;DHT22;18644;48.700;9.210;2022-09-21T00:15:00;9.60;61.80
32139;DHT22;18644;48.700;9.210;2022-09-21T00:17:28;9.60;61.70
32139;DHT22;18644;48.700;9.210;2022-09-21T00:19:54;9.50;61.50
32139;DHT22;18644;48.700;9.210;2022-09-21T00:22:22;9.50;61.20
32139;DHT22;18644;48.700;9.210;2022-09-21T00:24:48;9.50;61.10
32139;DHT22;18644;48.700;9.210;2022-09-21T00:27:15;9.50;61.10
32139;DHT22;18644;48.700;9.210;2022-09-21T00:29:42;9.40;61.10
32139;DHT22;18644;48.700;9.210;2022-09-21T00:32:09;9.40;61.20
32139;DHT22;18644;48.700;9.210;2022-09-21T00:34:37;9.40;61.20
32139;DHT22;18644;48.700;9.210;2022-09-21T00:37:04;9.30;61.00
32139;DHT22;18644;48.700;9.210;2022-09-21T00:39:31;9.30;61.00
32139;DHT22;18644;48.700;9.210;2022-09-21T00:41:58;9.20;60.90
32139;DHT22;18644;48.700;9.210;2022-09-21T00:44:29;9.20;61.00
32139;DHT22;18644;48.700;9.210;2022-09-21T00:47:02;9.20;61.00
32139;DHT22;18644;48.700;9.210;2022-09-21T00:49:34;9.10;60.90
32139;DHT22;18644;48.700;9.210;2022-09-21T00:52:04;9.10;61.00
32139;DHT22;18644;48.700;9.210;2022-09-21T00:54:35;9.10;61.00
32139;DHT22;18644;48.700;9.210;2022-09-21T00:57:04;9.00;60.90
32139;DHT22;18644;48.700;9.210;2022-09-21T00:59:34;9.00;61.30
32139;DHT22;18644;48.700;9.210;2022-09-21T01:02:03;9.00;60.70
32139;DHT22;18644;48.700;9.210;2022-09-21T01:04:31;8.90;60.60
32139;DHT22;18644;48.700;9.210;2022-09-21T01:07:02;8.90;60.60
32139;DHT22;18644;48.700;9.210;2022-09-21T01:09:31;8.80;60.60
32139;DHT22;18644;48.700;9.210;2022-09-21T01:12:15;8.80;60.70
32139;DHT22;18644;48.700;9.210;2022-09-21T01:15:01;8.70;60.80
32139;DHT22;18644;48.700;9.210;2022-09-21T01:17:40;8.70;60.80
32139;DHT22;18644;48.700;9.210;2022-09-21T01:20:28;8.60;60.90
32139;DHT22;18644;48.700;9.210;2022-09-21T01:23:27;8.60;61.30
32139;DHT22;18644;48.700;9.210;2022-09-21T01:26:11;8.60;61.30
32139;DHT22;18644;48.700;9.210;2022-09-21T01:29:05;8.50;61.20
32139;DHT22;18644;48.700;9.210;2022-09-21T01:31:40;8.50;61.40
32139;DHT22;18644;48.700;9.210;2022-09-21T01:34:17;8.50;61.20
32139;DHT22;18644;48.700;9.210;2022-09-21T01:36:52;8.40;61.20
32139;DHT22;18644;48.700;9.210;2022-09-21T01:39:21;8.40;61.20
32139;DHT22;18644;48.700;9.210;2022-09-21T01:41:49;8.40;61.30
32139;DHT22;18644;48.700;9.210;2022-09-21T01:44:21;8.30;61.30
32139;DHT22;18644;48.700;9.210;2022-09-21T01:46:49;8.30;61.40
32139;DHT22;18644;48.700;9.210;2022-09-21T01:49:21;8.30;61.40
32139;DHT22;18644;48.700;9.210;2022-09-21T01:51:54;8.20;61.50
32139;DHT22;18644;48.700;9.210;2022-09-21T01:54:29;8.20;61.50
32139;DHT22;18644;48.700;9.210;2022-09-21T01:57:04;8.20;61.60
32139;DHT22;18644;48.700;9.210;2022-09-21T01:59:41;8.10;61.60
32139;DHT22;18644;48.700;9.210;2022-09-21T02:02:17;8.10;61.60
32139;DHT22;18644;48.700;9.210;2022-09-21T02:04:45;8.10;61.60
32139;DHT22;18644;48.700;9.210;2022-09-21T02:07:12;8.10;61.60
32139;DHT22;18644;48.700;9.210;2022-09-21T02:09:41;8.00;61.50
32139;DHT22;18644;48.700;9.210;2022-09-21T02:12:09;8.00;61.60
32139;DHT22;18644;48.700;9.210;2022-09-21T02:14:37;8.00;61.60
32139;DHT22;18644;48.700;9.210;2022-09-21T02:17:13;7.90;61.60
32139;DHT22;18644;48.700;9.210;2022-09-21T02:19:51;7.90;61.70
32139;DHT22;18644;48.700;9.210;2022-09-21T02:22:30;7.90;61.60
32139;DHT22;18644;48.700;9.210;2022-09-21T02:25:09;7.90;61.60
32139;DHT22;18644;48.700;9.210;2022-09-21T02:27:46;7.80;61.50
32139;DHT22;18644;48.700;9.210;2022-09-21T02:30:18;7.80;61.70
32139;DHT22;18644;48.700;9.210;2022-09-21T02:32:51;7.70;61.60
32139;DHT22;18644;48.700;9.210;2022-09-21T02:35:30;7.70;61.70
32139;DHT22;18644;48.700;9.210;2022-09-21T02:38:06;7.70;61.90
32139;DHT22;18644;48.700;9.210;2022-09-21T02:40:36;7.70;62.00
32139;DHT22;18644;48.700;9.210;2022-09-21T02:43:09;7.60;62.00
32139;DHT22;18644;48.700;9.210;2022-09-21T02:45:45;7.60;62.10
32139;DHT22;18644;48.700;9.210;2022-09-21T02:48:18;7.60;62.10
32139;DHT22;18644;48.700;9.210;2022-09-21T02:50:50;7.60;62.10
32139;DHT22;18644;48.700;9.210;2022-09-21T02:53:22;7.50;62.10
32139;DHT22;18644;48.700;9.210;2022-09-21T02:55:52;7.50;62.20
32139;DHT22;18644;48.700;9.210;2022-09-21T02:58:21;7.50;62.10
32139;DHT22;18644;48.700;9.210;2022-09-21T03:00:54;7.50;62.20
32139;DHT22;18644;48.700;9.210;2022-09-21T03:03:23;7.50;62.30
32139;DHT22;18644;48.700;9.210;2022-09-21T03:05:52;7.50;62.30
32139;DHT22;18644;48.700;9.210;2022-09-21T03:08:20;7.50;62.40
32139;DHT22;18644;48.700;9.210;2022-09-21T03:10:48;7.40;62.30
32139;DHT22;18644;48.700;9.210;2022-09-21T03:13:15;7.40;62.40
32139;DHT22;18644;48.700;9.210;2022-09-21T03:15:42;7.40;62.30
32139;DHT22;18644;48.700;9.210;2022-09-21T03:18:12;7.30;62.30
32139;DHT22;18644;48.700;9.210;2022-09-21T03:20:42;7.30;62.40
32139;DHT22;18644;48.700;9.210;2022-09-21T03:23:11;7.30;62.50
32139;DHT22;18644;48.700;9.210;2022-09-21T03:25:38;7.30;62.50
32139;DHT22;18644;48.700;9.210;2022-09-21T03:28:05;7.30;62.50
32139;DHT22;18644;48.700;9.210;2022-09-21T03:30:32;7.20;62.40
32139;DHT22;18644;48.700;9.210;2022-09-21T03:32:59;7.20;62.50
32139;DHT22;18644;48.700;9.210;2022-09-21T03:35:31;7.20;62.50
32139;DHT22;18644;48.700;9.210;2022-09-21T03:37:59;7.20;62.50
32139;DHT22;18644;48.700;9.210;2022-09-21T03:40:26;7.20;62.50
32139;DHT22;18644;48.700;9.210;2022-09-21T03:42:54;7.10;62.40
32139;DHT22;18644;48.700;9.210;2022-09-21T03:45:21;7.10;62.30
32139;DHT22;18644;48.700;9.210;2022-09-21T03:47:49;7.10;62.40
32139;DHT22;18644;48.700;9.210;2022-09-21T03:50:16;7.00;62.40
32139;DHT22;18644;48.700;9.210;2022-09-21T03:52:44;7.00;62.50
32139;DHT22;18644;48.700;9.210;2022-09-21T03:55:11;7.00;62.50
32139;DHT22;18644;48.700;9.210;2022-09-21T03:57:38;7.00;62.50
32139;DHT22;18644;48.700;9.210;2022-09-21T04:00:07;6.90;62.50
32139;DHT22;18644;48.700;9.210;2022-09-21T04:02:36;6.90;62.50
32139;DHT22;18644;48.700;9.210;2022-09-21T04:05:05;6.90;62.50
32139;DHT22;18644;48.700;9.210;2022-09-21T04:07:34;6.90;62.50
32139;DHT22;18644;48.700;9.210;2022-09-21T04:10:05;6.90;62.50
32139;DHT22;18644;48.700;9.210;2022-09-21T04:12:33;6.80;62.50
32139;DHT22;18644;48.700;9.210;2022-09-21T04:15:01;6.80;62.60
32139;DHT22;18644;48.700;9.210;2022-09-21T04:17:29;6.80;62.70
32139;DHT22;18644;48.700;9.210;2022-09-21T04:19:56;6.80;62.80
32139;DHT22;18644;48.700;9.210;2022-09-21T04:22:23;6.70;62.80
32139;DHT22;18644;48.700;9.210;2022-09-21T04:24:51;6.70;62.90
32139;DHT22;18644;48.700;9.210;2022-09-21T04:27:19;6.70;63.00
32139;DHT22;18644;48.700;9.210;2022-09-21T04:29:46;6.70;63.20
32139;DHT22;18644;48.700;9.210;2022-09-21T04:32:13;6.70;63.20
32139;DHT22;18644;48.700;9.210;2022-09-21T04:34:40;6.70;63.30
32139;DHT22;18644;48.700;9.210;2022-09-21T04:37:08;6.70;63.30
32139;DHT22;18644;48.700;9.210;2022-09-21T04:39:35;6.60;63.30
32139;DHT22;18644;48.700;9.210;2022-09-21T04:42:02;6.70;63.30
32139;DHT22;18644;48.700;9.210;2022-09-21T04:44:31;6.60;63.30
32139;DHT22;18644;48.700;9.210;2022-09-21T04:46:57;6.60;63.20
32139;DHT22;18644;48.700;9.210;2022-09-21T04:49:25;6.60;63.30
32139;DHT22;18644;48.700;9.210;2022-09-21T04:51:52;6.60;64.10
32139;DHT22;18644;48.700;9.210;2022-09-21T04:54:19;6.60;63.40
32139;DHT22;18644;48.700;9.210;2022-09-21T04:56:45;6.50;63.40
32139;DHT22;18644;48.700;9.210;2022-09-21T04:59:12;6.50;63.30
32139;DHT22;18644;48.700;9.210;2022-09-21T05:01:40;6.50;63.30
32139;DHT22;18644;48.700;9.210;2022-09-21T05:04:07;6.50;63.40
32139;DHT22;18644;48.700;9.210;2022-09-21T05:06:34;6.50;63.50
32139;DHT22;18644;48.700;9.210;2022-09-21T05:09:02;6.50;63.60
32139;DHT22;18644;48.700;9.210;2022-09-21T05:11:47;6.50;63.70
32139;DHT22;18644;48.700;9.210;2022-09-21T05:14:14;6.50;63.80
32139;DHT22;18644;48.700;9.210;2022-09-21T05:16:42;6.50;63.80
32139;DHT22;18644;48.700;9.210;2022-09-21T05:19:09;6.50;63.90
32139;DHT22;18644;48.700;9.210;2022-09-21T05:21:36;6.40;64.10
32139;DHT22;18644;48.700;9.210;2022-09-21T05:24:04;6.50;64.30
32139;DHT22;18644;48.700;9.210;2022-09-21T05:26:30;6.50;64.30
32139;DHT22;18644;48.700;9.210;2022-09-21T05:28:58;6.50;64.30
32139;DHT22;18644;48.700;9.210;2022-09-21T05:31:37;6.50;64.30
32139;DHT22;18644;48.700;9.210;2022-09-21T05:37:28;6.50;64.30
32139;DHT22;18644;48.700;9.210;2022-09-21T05:40:04;6.50;64.20
32139;DHT22;18644;48.700;9.210;2022-09-21T05:42:33;6.50;64.30
32139;DHT22;18644;48.700;9.210;2022-09-21T05:45:00;6.50;64.30
32139;DHT22;18644;48.700;9.210;2022-09-21T05:47:36;6.50;64.30
32139;DHT22;18644;48.700;9.210;2022-09-21T05:50:19;6.50;64.50
32139;DHT22;18644;48.700;9.210;2022-09-21T05:52:56;6.50;64.50
32139;DHT22;18644;48.700;9.210;2022-09-21T05:55:34;6.50;64.50
32139;DHT22;18644;48.700;9.210;2022-09-21T05:58:14;6.60;64.70
32139;DHT22;18644;48.700;9.210;2022-09-21T06:00:54;6.60;64.90
32139;DHT22;18644;48.700;9.210;2022-09-21T06:03:27;6.60;65.00
32139;DHT22;18644;48.700;9.210;2022-09-21T06:05:57;6.70;65.20
32139;DHT22;18644;48.700;9.210;2022-09-21T06:08:25;6.70;65.50
32139;DHT22;18644;48.700;9.210;2022-09-21T06:10:52;6.80;65.70
32139;DHT22;18644;48.700;9.210;2022-09-21T06:13:20;6.80;65.90
32139;DHT22;18644;48.700;9.210;2022-09-21T06:15:47;6.90;66.20
32139;DHT22;18644;48.700;9.210;2022-09-21T06:18:14;7.00;66.40
32139;DHT22;18644;48.700;9.210;2022-09-21T06:20:41;7.10;66.80
32139;DHT22;18644;48.700;9.210;2022-09-21T06:23:10;7.10;66.90
32139;DHT22;18644;48.700;9.210;2022-09-21T06:25:38;7.20;67.20
32139;DHT22;18644;48.700;9.210;2022-09-21T06:28:07;7.40;67.50
32139;DHT22;18644;48.700;9.210;2022-09-21T06:30:35;7.40;67.60
32139;DHT22;18644;48.700;9.210;2022-09-21T06:33:05;7.60;67.80
32139;DHT22;18644;48.700;9.210;2022-09-21T06:35:34;7.70;68.00
32139;DHT22;18644;48.700;9.210;2022-09-21T06:38:03;7.80;68.20
32139;DHT22;18644;48.700;9.210;2022-09-21T06:40:34;7.90;68.50
32139;DHT22;18644;48.700;9.210;2022-09-21T06:43:05;8.00;68.60
32139;DHT22;18644;48.700;9.210;2022-09-21T06:45:32;8.20;68.90
32139;DHT22;18644;48.700;9.210;2022-09-21T06:47:59;8.30;69.00
32139;DHT22;18644;48.700;9.210;2022-09-21T06:50:26;8.50;69.10
32139;DHT22;18644;48.700;9.210;2022-09-21T06:52:53;8.60;69.10
32139;DHT22;18644;48.700;9.210;2022-09-21T06:55:19;8.70;69.20
32139;DHT22;18644;48.700;9.210;2022-09-21T06:57:48;8.80;69.10
32139;DHT22;18644;48.700;9.210;2022-09-21T07:00:16;8.90;69.00
32139;DHT22;18644;48.700;9.210;2022-09-21T07:02:43;9.00;69.70
32139;DHT22;18644;48.700;9.210;2022-09-21T07:05:11;9.20;68.90
32139;DHT22;18644;48.700;9.210;2022-09-21T07:07:38;9.30;68.70
32139;DHT22;18644;48.700;9.210;2022-09-21T07:10:06;9.40;68.70
32139;DHT22;18644;48.700;9.210;2022-09-21T07:12:34;9.50;68.70
32139;DHT22;18644;48.700;9.210;2022-09-21T07:15:04;9.60;68.70
32139;DHT22;18644;48.700;9.210;2022-09-21T07:17:32;9.70;68.60
32139;DHT22;18644;48.700;9.210;2022-09-21T07:20:00;9.80;68.60
32139;DHT22;18644;48.700;9.210;2022-09-21T07:22:28;10.00;68.70
32139;DHT22;18644;48.700;9.210;2022-09-21T07:24:56;10.10;68.60
32139;DHT22;18644;48.700;9.210;2022-09-21T07:27:23;10.20;68.50
32139;DHT22;18644;48.700;9.210;2022-09-21T07:29:50;10.30;68.30
32139;DHT22;18644;48.700;9.210;2022-09-21T07:32:19;10.40;68.30
32139;DHT22;18644;48.700;9.210;2022-09-21T07:34:46;10.50;68.10
32139;DHT22;18644;48.700;9.210;2022-09-21T07:37:13;10.60;68.10
32139;DHT22;18644;48.700;9.210;2022-09-21T07:39:40;10.70;67.90
32139;DHT22;18644;48.700;9.210;2022-09-21T07:42:07;10.80;67.70
32139;DHT22;18644;48.700;9.210;2022-09-21T07:44:34;11.00;67.80
32139;DHT22;18644;48.700;9.210;2022-09-21T07:47:01;11.10;67.60
32139;DHT22;18644;48.700;9.210;2022-09-21T07:49:29;11.20;67.60
32139;DHT22;18644;48.700;9.210;2022-09-21T07:51:56;11.30;67.50
32139;DHT22;18644;48.700;9.210;2022-09-21T07:54:23;11.40;67.40
32139;DHT22;18644;48.700;9.210;2022-09-21T07:56:50;11.50;67.40
32139;DHT22;18644;48.700;9.210;2022-09-21T07:59:31;11.60;67.30
32139;DHT22;18644;48.700;9.210;2022-09-21T08:01:58;11.70;67.30
32139;DHT22;18644;48.700;9.210;2022-09-21T08:04:25;11.90;67.10
32139;DHT22;18644;48.700;9.210;2022-09-21T08:06:53;12.00;66.90
32139;DHT22;18644;48.700;9.210;2022-09-21T08:09:20;12.10;66.90
32139;DHT22;18644;48.700;9.210;2022-09-21T08:11:47;12.20;66.70
32139;DHT22;18644;48.700;9.210;2022-09-21T08:14:16;12.30;66.80
32139;DHT22;18644;48.700;9.210;2022-09-21T08:16:45;12.40;66.80
32139;DHT22;18644;48.700;9.210;2022-09-21T08:19:12;12.50;66.60
32139;DHT22;18644;48.700;9.210;2022-09-21T08:21:42;12.70;66.70
32139;DHT22;18644;48.700;9.210;2022-09-21T08:24:10;12.80;66.60
32139;DHT22;18644;48.700;9.210;2022-09-21T08:26:37;13.00;66.50
32139;DHT22;18644;48.700;9.210;2022-09-21T08:29:05;13.10;66.40
32139;DHT22;18644;48.700;9.210;2022-09-21T08:31:32;13.20;66.30
32139;DHT22;18644;48.700;9.210;2022-09-21T08:34:00;13.40;66.00
32139;DHT22;18644;48.700;9.210;2022-09-21T08:36:27;13.50;65.90
32139;DHT22;18644;48.700;9.210;2022-09-21T08:38:54;13.60;66.30
32139;DHT22;18644;48.700;9.210;2022-09-21T08:41:25;13.80;65.20
32139;DHT22;18644;48.700;9.210;2022-09-21T08:44:03;13.90;65.20
32139;DHT22;18644;48.700;9.210;2022-09-21T08:46:35;14.00;65.10
32139;DHT22;18644;48.700;9.210;2022-09-21T08:49:05;14.20;65.00
32139;DHT22;18644;48.700;9.210;2022-09-21T08:51:41;14.30;65.10
32139;DHT22;18644;48.700;9.210;2022-09-21T08:54:18;14.50;64.90
32139;DHT22;18644;48.700;9.210;2022-09-21T08:56:49;14.60;64.70
32139;DHT22;18644;48.700;9.210;2022-09-21T08:59:17;14.80;64.60
32139;DHT22;18644;48.700;9.210;2022-09-21T09:01:53;15.00;64.50
32139;DHT22;18644;48.700;9.210;2022-09-21T09:04:38;15.10;64.40
32139;DHT22;18644;48.700;9.210;2022-09-21T09:07:24;15.30;63.80
32139;DHT22;18644;48.700;9.210;2022-09-21T09:10:10;15.40;63.50
32139;DHT22;18644;48.700;9.210;2022-09-21T09:12:52;15.60;63.20
32139;DHT22;18644;48.700;9.210;2022-09-21T09:15:36;15.70;62.50
32139;DHT22;18644;48.700;9.210;2022-09-21T09:18:20;15.90;62.10
32139;DHT22;18644;48.700;9.210;2022-09-21T09:20:56;16.00;62.00
32139;DHT22;18644;48.700;9.210;2022-09-21T09:23:26;16.10;62.10
32139;DHT22;18644;48.700;9.210;2022-09-21T09:25:58;16.30;62.00
32139;DHT22;18644;48.700;9.210;2022-09-21T09:28:33;16.40;61.20
32139;DHT22;18644;48.700;9.210;2022-09-21T09:31:05;16.50;60.90
32139;DHT22;18644;48.700;9.210;2022-09-21T09:33:45;16.70;60.80
32139;DHT22;18644;48.700;9.210;2022-09-21T09:36:17;16.80;60.20
32139;DHT22;18644;48.700;9.210;2022-09-21T09:38:47;16.90;60.30
32139;DHT22;18644;48.700;9.210;2022-09-21T09:41:42;17.10;59.90
32139;DHT22;18644;48.700;9.210;2022-09-21T09:47:49;17.40;59.60
32139;DHT22;18644;48.700;9.210;2022-09-21T09:50:24;17.60;59.50
32139;DHT22;18644;48.700;9.210;2022-09-21T09:52:57;17.70;59.40
32139;DHT22;18644;48.700;9.210;2022-09-21T09:55:34;17.90;58.90
32139;DHT22;18644;48.700;9.210;2022-09-21T09:58:03;18.00;58.00
32139;DHT22;18644;48.700;9.210;2022-09-21T10:00:32;18.10;57.70
32139;DHT22;18644;48.700;9.210;2022-09-21T10:02:59;18.30;57.40
32139;DHT22;18644;48.700;9.210;2022-09-21T10:05:31;18.40;57.50
32139;DHT22;18644;48.700;9.210;2022-09-21T10:08:00;18.50;57.30
32139;DHT22;18644;48.700;9.210;2022-09-21T10:10:33;18.70;57.60
32139;DHT22;18644;48.700;9.210;2022-09-21T10:13:05;18.80;57.00
32139;DHT22;18644;48.700;9.210;2022-09-21T10:15:43;19.00;56.70
32139;DHT22;18644;48.700;9.210;2022-09-21T10:18:17;19.10;56.50
32139;DHT22;18644;48.700;9.210;2022-09-21T10:20:57;19.30;55.80
32139;DHT22;18644;48.700;9.210;2022-09-21T10:23:27;19.40;55.80
32139;DHT22;18644;48.700;9.210;2022-09-21T10:25:59;19.50;56.20
32139;DHT22;18644;48.700;9.210;2022-09-21T10:28:28;19.70;55.40
32139;DHT22;18644;48.700;9.210;2022-09-21T10:31:11;19.90;55.10
32139;DHT22;18644;48.700;9.210;2022-09-21T10:33:50;20.10;54.90
32139;DHT22;18644;48.700;9.210;2022-09-21T10:36:30;20.20;55.00
32139;DHT22;18644;48.700;9.210;2022-09-21T10:39:21;20.40;54.60
32139;DHT22;18644;48.700;9.210;2022-09-21T10:41:52;20.60;54.00
32139;DHT22;18644;48.700;9.210;2022-09-21T10:44:22;20.60;53.70
32139;DHT22;18644;48.700;9.210;2022-09-21T10:46:53;20.70;53.10
32139;DHT22;18644;48.700;9.210;2022-09-21T10:49:23;20.80;53.10
32139;DHT22;18644;48.700;9.210;2022-09-21T10:51:55;20.90;53.80
32139;DHT22;18644;48.700;9.210;2022-09-21T10:54:26;21.00;53.80
32139;DHT22;18644;48.700;9.210;2022-09-21T10:56:57;21.20;53.20
32139;DHT22;18644;48.700;9.210;2022-09-21T10:59:28;21.40;52.80
32139;DHT22;18644;48.700;9.210;2022-09-21T11:01:59;21.50;52.80
32139;DHT22;18644;48.700;9.210;2022-09-21T11:04:35;21.60;51.60
32139;DHT22;18644;48.700;9.210;2022-09-21T11:07:16;21.80;50.60
32139;DHT22;18644;48.700;9.210;2022-09-21T11:09:52;21.90;50.50
32139;DHT22;18644;48.700;9.210;2022-09-21T11:12:39;22.00;50.20
32139;DHT22;18644;48.700;9.210;2022-09-21T11:15:16;22.00;48.60
32139;DHT22;18644;48.700;9.210;2022-09-21T11:18:01;22.00;48.70
32139;DHT22;18644;48.700;9.210;2022-09-21T11:20:38;22.00;49.00
32139;DHT22;18644;48.700;9.210;2022-09-21T11:23:32;21.90;48.60
32139;DHT22;18644;48.700;9.210;2022-09-21T11:26:09;21.90;48.20
32139;DHT22;18644;48.700;9.210;2022-09-21T11:28:45;21.70;48.00
32139;DHT22;18644;48.700;9.210;2022-09-21T11:31:31;21.60;47.90
32139;DHT22;18644;48.700;9.210;2022-09-21T11:34:23;21.40;47.20
32139;DHT22;18644;48.700;9.210;2022-09-21T11:37:04;21.30;47.80
32139;DHT22;18644;48.700;9.210;2022-09-21T11:39:48;21.20;48.00
32139;DHT22;18644;48.700;9.210;2022-09-21T11:42:34;21.00;48.20
32139;DHT22;18644;48.700;9.210;2022-09-21T11:45:24;20.90;48.00
32139;DHT22;18644;48.700;9.210;2022-09-21T11:48:07;20.80;47.90
32139;DHT22;18644;48.700;9.210;2022-09-21T11:50:50;20.70;47.90
32139;DHT22;18644;48.700;9.210;2022-09-21T11:53:31;20.60;48.00
32139;DHT22;18644;48.700;9.210;2022-09-21T11:56:31;20.50;48.10
32139;DHT22;18644;48.700;9.210;2022-09-21T11:59:19;20.40;48.80
32139;DHT22;18644;48.700;9.210;2022-09-21T12:02:21;20.30;48.10
32139;DHT22;18644;48.700;9.210;2022-09-21T12:05:03;20.20;48.40
32139;DHT22;18644;48.700;9.210;2022-09-21T12:07:47;20.30;49.40
32139;DHT22;18644;48.700;9.210;2022-09-21T12:10:39;20.50;49.50
32139;DHT22;18644;48.700;9.210;2022-09-21T12:13:19;20.70;50.30
32139;DHT22;18644;48.700;9.210;2022-09-21T12:15:57;20.90;50.00
32139;DHT22;18644;48.700;9.210;2022-09-21T12:18:33;21.20;49.50
32139;DHT22;18644;48.700;9.210;2022-09-21T12:21:07;21.50;49.60
32139;DHT22;18644;48.700;9.210;2022-09-21T12:23:42;21.70;49.20
32139;DHT22;18644;48.700;9.210;2022-09-21T12:26:14;21.90;48.30
32139;DHT22;18644;48.700;9.210;2022-09-21T12:28:46;22.00;47.70
32139;DHT22;18644;48.700;9.210;2022-09-21T12:31:20;22.10;47.20
32139;DHT22;18644;48.700;9.210;2022-09-21T12:33:51;22.10;46.80
32139;DHT22;18644;48.700;9.210;2022-09-21T12:36:24;22.20;47.00
32139;DHT22;18644;48.700;9.210;2022-09-21T12:39:00;22.30;46.60
32139;DHT22;18644;48.700;9.210;2022-09-21T12:41:34;22.40;46.50
32139;DHT22;18644;48.700;9.210;2022-09-21T12:44:14;22.50;46.60
32139;DHT22;18644;48.700;9.210;2022-09-21T12:46:45;22.60;46.60
32139;DHT22;18644;48.700;9.210;2022-09-21T12:49:19;22.80;47.00
32139;DHT22;18644;48.700;9.210;2022-09-21T12:51:50;22.80;46.30
32139;DHT22;18644;48.700;9.210;2022-09-21T12:54:27;22.90;45.40
32139;DHT22;18644;48.700;9.210;2022-09-21T12:57:06;22.80;43.80
32139;DHT22;18644;48.700;9.210;2022-09-21T12:59:41;22.60;43.30
32139;DHT22;18644;48.700;9.210;2022-09-21T13:02:16;22.50;43.60
32139;DHT22;18644;48.700;9.210;2022-09-21T13:04:57;22.30;43.40
32139;DHT22;18644;48.700;9.210;2022-09-21T13:07:55;22.20;43.30
32139;DHT22;18644;48.700;9.210;2022-09-21T13:10:39;22.10;43.20
32139;DHT22;18644;48.700;9.210;2022-09-21T13:13:27;21.90;43.40
32139;DHT22;18644;48.700;9.210;2022-09-21T13:15:57;21.80;43.50
32139;DHT22;18644;48.700;9.210;2022-09-21T13:18:27;21.70;44.00
32139;DHT22;18644;48.700;9.210;2022-09-21T13:20:57;21.70;44.00
32139;DHT22;18644;48.700;9.210;2022-09-21T13:23:28;21.60;43.70
32139;DHT22;18644;48.700;9.210;2022-09-21T13:26:03;21.50;43.60
32139;DHT22;18644;48.700;9.210;2022-09-21T13:29:00;21.40;43.50
32139;DHT22;18644;48.700;9.210;2022-09-21T13:31:51;21.30;43.20
32139;DHT22;18644;48.700;9.210;2022-09-21T13:34:25;21.20;43.30
32139;DHT22;18644;48.700;9.210;2022-09-21T13:43:21;21.10;44.40
32139;DHT22;18644;48.700;9.210;2022-09-21T13:46:03;21.20;45.30
32139;DHT22;18644;48.700;9.210;2022-09-21T13:48:31;21.40;45.40
32139;DHT22;18644;48.700;9.210;2022-09-21T13:51:06;21.60;45.20
32139;DHT22;18644;48.700;9.210;2022-09-21T13:53:37;21.80;44.90
32139;DHT22;18644;48.700;9.210;2022-09-21T13:56:14;22.00;44.80
32139;DHT22;18644;48.700;9.210;2022-09-21T13:58:46;22.20;44.70
32139;DHT22;18644;48.700;9.210;2022-09-21T14:01:18;22.40;45.10
32139;DHT22;18644;48.700;9.210;2022-09-21T14:03:48;22.70;44.90
32139;DHT22;18644;48.700;9.210;2022-09-21T14:06:19;22.80;44.20
32139;DHT22;18644;48.700;9.210;2022-09-21T14:08:54;23.00;43.80
32139;DHT22;18644;48.700;9.210;2022-09-21T14:11:28;23.20;43.40
32139;DHT22;18644;48.700;9.210;2022-09-21T14:14:16;23.30;43.10
32139;DHT22;18644;48.700;9.210;2022-09-21T14:16:57;23.40;42.00
32139;DHT22;18644;48.700;9.210;2022-09-21T14:22:41;23.40;41.50
32139;DHT22;18644;48.700;9.210;2022-09-21T14:28:25;23.60;42.50
32139;DHT22;18644;48.700;9.210;2022-09-21T14:31:02;23.70;42.50
32139;DHT22;18644;48.700;9.210;2022-09-21T14:33:40;23.80;41.50
32139;DHT22;18644;48.700;9.210;2022-09-21T14:36:13;23.90;40.70
32139;DHT22;18644;48.700;9.210;2022-09-21T14:38:47;23.90;40.80
32139;DHT22;18644;48.700;9.210;2022-09-21T14:41:19;23.90;40.80
32139;DHT22;18644;48.700;9.210;2022-09-21T14:43:49;23.90;40.70
32139;DHT22;18644;48.700;9.210;2022-09-21T14:46:44;23.90;40.40
32139;DHT22;18644;48.700;9.210;2022-09-21T14:49:30;24.00;40.30
32139;DHT22;18644;48.700;9.210;2022-09-21T14:52:11;24.10;41.10
32139;DHT22;18644;48.700;9.210;2022-09-21T14:54:50;24.10;41.30
32139;DHT22;18644;48.700;9.210;2022-09-21T14:57:42;24.20;40.80
32139;DHT22;18644;48.700;9.210;2022-09-21T15:00:18;24.20;39.80
32139;DHT22;18644;48.700;9.210;2022-09-21T15:03:05;24.30;40.00
32139;DHT22;18644;48.700;9.210;2022-09-21T15:05:48;24.30;39.50
32139;DHT22;18644;48.700;9.210;2022-09-21T15:08:34;24.30;39.50
32139;DHT22;18644;48.700;9.210;2022-09-21T15:11:30;24.40;38.90
32139;DHT22;18644;48.700;9.210;2022-09-21T15:14:19;24.30;39.20
32139;DHT22;18644;48.700;9.210;2022-09-21T15:16:49;24.30;38.00
32139;DHT22;18644;48.700;9.210;2022-09-21T15:19:24;24.20;38.40
32139;DHT22;18644;48.700;9.210;2022-09-21T15:21:53;24.20;38.00
32139;DHT22;18644;48.700;9.210;2022-09-21T15:24:25;24.10;38.40
32139;DHT22;18644;48.700;9.210;2022-09-21T15:27:02;24.10;38.20
32139;DHT22;18644;48.700;9.210;2022-09-21T15:29:32;24.10;38.10
32139;DHT22;18644;48.700;9.210;2022-09-21T15:32:00;24.10;38.20
32139;DHT22;18644;48.700;9.210;2022-09-21T15:34:28;24.10;38.40
32139;DHT22;18644;48.700;9.210;2022-09-21T15:37:06;24.10;38.20
32139;DHT22;18644;48.700;9.210;2022-09-21T15:39:34;24.00;38.00
32139;DHT22;18644;48.700;9.210;2022-09-21T15:42:14;24.10;38.60
32139;DHT22;18644;48.700;9.210;2022-09-21T15:44:45;24.10;37.40
32139;DHT22;18644;48.700;9.210;2022-09-21T15:47:15;24.10;37.90
32139;DHT22;18644;48.700;9.210;2022-09-21T15:49:46;24.00;37.70
32139;DHT22;18644;48.700;9.210;2022-09-21T15:52:19;23.90;37.20
32139;DHT22;18644;48.700;9.210;2022-09-21T15:54:55;23.80;37.70
32139;DHT22;18644;48.700;9.210;2022-09-21T15:57:34;23.70;36.90
32139;DHT22;18644;48.700;9.210;2022-09-21T16:00:06;23.60;36.40
32139;DHT22;18644;48.700;9.210;2022-09-21T16:02:52;23.40;37.00
32139;DHT22;18644;48.700;9.210;2022-09-21T16:05:42;23.30;37.10
32139;DHT22;18644;48.700;9.210;2022-09-21T16:08:29;23.20;37.50
32139;DHT22;18644;48.700;9.210;2022-09-21T16:11:12;23.10;37.50
32139;DHT22;18644;48.700;9.210;2022-09-21T16:13:41;23.10;37.60
32139;DHT22;18644;48.700;9.210;2022-09-21T16:16:26;23.00;37.40
32139;DHT22;18644;48.700;9.210;2022-09-21T16:18:54;22.90;37.20
32139;DHT22;18644;48.700;9.210;2022-09-21T16:21:25;22.80;37.20
32139;DHT22;18644;48.700;9.210;2022-09-21T16:23:54;22.70;37.20
32139;DHT22;18644;48.700;9.210;2022-09-21T16:26:25;22.60;37.30
32139;DHT22;18644;48.700;9.210;2022-09-21T16:29:15;22.40;37.40
32139;DHT22;18644;48.700;9.210;2022-09-21T16:31:44;22.30;37.80
32139;DHT22;18644;48.700;9.210;2022-09-21T16:34:20;22.10;37.50